sensor_id;sensor_type;location;lat;lon;timestamp;pressure;altitude;pressure_sealevel;temperature;humidity
75543;BME280;64129;53.508;10.476;2023-07-30T00:00:44;100223.13;;;15.80;90.44
75543;BME280;64129;53.508;10.476;2023-07-30T00:03:11;100225.84;;;15.63;92.86
75543;BME280;64129;53.508;10.476;2023-07-30T00:05:37;100225.19;;;15.75;92.98
75543;BME280;64129;53.508;10.476;2023-07-30T00:08:04;100235.13;;;15.73;92.80
75543;BME280;64129;53.508;10.476;2023-07-30T00:10:30;100227.63;;;15.80;94.13
75543;BME280;64129;53.508;10.476;2023-07-30T00:12:57;100238.00;;;15.86;92.54
75543;BME280;64129;53.508;10.476;2023-07-30T00:15:23;100234.38;;;15.87;92.33
75543;BME280;64129;53.508;10.476;2023-07-30T00:17:50;100246.63;;;15.75;96.58
75543;BME280;64129;53.508;10.476;2023-07-30T00:20:16;100235.25;;;15.87;95.57
75543;BME280;64129;53.508;10.476;2023-07-30T00:22:43;100229.56;;;15.94;94.22
75543;BME280;64129;53.508;10.476;2023-07-30T00:25:10;100236.03;;;15.89;93.64
75543;BME280;64129;53.508;10.476;2023-07-30T00:27:36;100232.72;;;15.84;98.18
75543;BME280;64129;53.508;10.476;2023-07-30T00:30:03;100233.34;;;15.89;97.34
75543;BME280;64129;53.508;10.476;2023-07-30T00:32:30;100233.00;;;15.96;98.13
75543;BME280;64129;53.508;10.476;2023-07-30T00:34:56;100226.75;;;15.97;98.71
75543;BME280;64129;53.508;10.476;2023-07-30T00:37:23;100215.59;;;16.04;95.09
75543;BME280;64129;53.508;10.476;2023-07-30T00:39:50;100219.63;;;15.96;98.53
75543;BME280;64129;53.508;10.476;2023-07-30T00:42:16;100225.91;;;15.95;98.21
75543;BME280;64129;53.508;10.476;2023-07-30T00:44:44;100215.06;;;15.98;98.31
75543;BME280;64129;53.508;10.476;2023-07-30T00:47:11;100222.00;;;16.02;99.56
75543;BME280;64129;53.508;10.476;2023-07-30T00:49:38;100217.34;;;16.21;98.13
75543;BME280;64129;53.508;10.476;2023-07-30T00:52:06;100225.28;;;16.22;97.56
75543;BME280;64129;53.508;10.476;2023-07-30T00:54:33;100225.72;;;16.15;99.30
75543;BME280;64129;53.508;10.476;2023-07-30T00:57:00;100236.34;;;16.16;99.65
75543;BME280;64129;53.508;10.476;2023-07-30T00:59:27;100258.31;;;16.23;96.93
75543;BME280;64129;53.508;10.476;2023-07-30T01:01:55;100251.72;;;16.13;95.95
75543;BME280;64129;53.508;10.476;2023-07-30T01:04:23;100242.13;;;16.09;98.33
75543;BME280;64129;53.508;10.476;2023-07-30T01:06:50;100246.38;;;16.13;96.61
75543;BME280;64129;53.508;10.476;2023-07-30T01:09:17;100245.59;;;16.11;95.51
75543;BME280;64129;53.508;10.476;2023-07-30T01:11:44;100251.22;;;16.22;97.94
75543;BME280;64129;53.508;10.476;2023-07-30T01:14:11;100254.84;;;16.21;94.78
75543;BME280;64129;53.508;10.476;2023-07-30T01:16:41;100248.06;;;16.31;95.45
75543;BME280;64129;53.508;10.476;2023-07-30T01:19:07;100237.03;;;16.20;97.18
75543;BME280;64129;53.508;10.476;2023-07-30T01:21:35;100242.06;;;16.26;97.14
75543;BME280;64129;53.508;10.476;2023-07-30T01:24:03;100238.13;;;16.33;98.04
75543;BME280;64129;53.508;10.476;2023-07-30T01:26:56;100233.78;;;16.46;95.98
75543;BME280;64129;53.508;10.476;2023-07-30T01:29:29;100237.25;;;16.48;96.15
75543;BME280;64129;53.508;10.476;2023-07-30T01:32:02;100226.09;;;16.40;96.70
75543;BME280;64129;53.508;10.476;2023-07-30T01:34:34;100226.19;;;16.39;97.85
75543;BME280;64129;53.508;10.476;2023-07-30T01:37:01;100233.03;;;16.44;98.18
75543;BME280;64129;53.508;10.476;2023-07-30T01:39:29;100235.94;;;16.56;96.09
75543;BME280;64129;53.508;10.476;2023-07-30T01:41:56;100233.19;;;16.41;97.57
75543;BME280;64129;53.508;10.476;2023-07-30T01:44:22;100230.50;;;16.41;97.00
75543;BME280;64129;53.508;10.476;2023-07-30T01:46:49;100238.97;;;16.34;97.37
75543;BME280;64129;53.508;10.476;2023-07-30T01:49:15;100242.94;;;16.27;98.95
75543;BME280;64129;53.508;10.476;2023-07-30T01:51:42;100243.47;;;16.49;95.23
75543;BME280;64129;53.508;10.476;2023-07-30T01:54:09;100235.09;;;16.39;97.55
75543;BME280;64129;53.508;10.476;2023-07-30T01:56:35;100239.59;;;16.54;96.14
75543;BME280;64129;53.508;10.476;2023-07-30T01:59:02;100242.97;;;16.58;97.24
75543;BME280;64129;53.508;10.476;2023-07-30T02:01:28;100245.91;;;16.53;97.73
75543;BME280;64129;53.508;10.476;2023-07-30T02:03:55;100247.97;;;16.33;98.21
75543;BME280;64129;53.508;10.476;2023-07-30T02:06:22;100246.84;;;16.52;98.16
75543;BME280;64129;53.508;10.476;2023-07-30T02:08:48;100246.25;;;16.47;97.22
75543;BME280;64129;53.508;10.476;2023-07-30T02:11:15;100240.88;;;16.47;97.49
75543;BME280;64129;53.508;10.476;2023-07-30T02:13:42;100240.34;;;16.57;97.25
75543;BME280;64129;53.508;10.476;2023-07-30T02:16:08;100239.34;;;16.43;95.82
75543;BME280;64129;53.508;10.476;2023-07-30T02:18:35;100230.34;;;16.44;96.88
75543;BME280;64129;53.508;10.476;2023-07-30T02:21:02;100235.00;;;16.41;94.82
75543;BME280;64129;53.508;10.476;2023-07-30T02:23:28;100235.69;;;16.44;96.84
75543;BME280;64129;53.508;10.476;2023-07-30T02:25:55;100228.59;;;16.43;97.18
75543;BME280;64129;53.508;10.476;2023-07-30T02:28:22;100226.69;;;16.61;91.71
75543;BME280;64129;53.508;10.476;2023-07-30T02:30:48;100226.19;;;16.54;96.69
75543;BME280;64129;53.508;10.476;2023-07-30T02:33:15;100232.41;;;16.39;97.78
75543;BME280;64129;53.508;10.476;2023-07-30T02:35:43;100226.00;;;16.42;97.67
75543;BME280;64129;53.508;10.476;2023-07-30T02:38:10;100223.94;;;16.31;98.62
75543;BME280;64129;53.508;10.476;2023-07-30T02:40:37;100232.31;;;16.41;97.54
75543;BME280;64129;53.508;10.476;2023-07-30T02:43:04;100228.69;;;16.42;97.50
75543;BME280;64129;53.508;10.476;2023-07-30T02:45:30;100230.50;;;16.41;97.36
75543;BME280;64129;53.508;10.476;2023-07-30T02:47:57;100224.28;;;16.41;92.55
75543;BME280;64129;53.508;10.476;2023-07-30T02:50:23;100231.72;;;16.36;96.88
75543;BME280;64129;53.508;10.476;2023-07-30T02:52:50;100239.47;;;16.25;99.06
75543;BME280;64129;53.508;10.476;2023-07-30T02:55:16;100247.25;;;16.29;98.89
75543;BME280;64129;53.508;10.476;2023-07-30T02:57:43;100246.16;;;16.33;98.78
75543;BME280;64129;53.508;10.476;2023-07-30T03:00:10;100253.84;;;16.39;98.01
75543;BME280;64129;53.508;10.476;2023-07-30T03:02:37;100250.56;;;16.34;95.55
75543;BME280;64129;53.508;10.476;2023-07-30T03:05:04;100253.06;;;16.37;97.82
75543;BME280;64129;53.508;10.476;2023-07-30T03:07:30;100256.44;;;16.41;96.93
75543;BME280;64129;53.508;10.476;2023-07-30T03:09:57;100254.50;;;16.27;98.08
75543;BME280;64129;53.508;10.476;2023-07-30T03:12:23;100256.75;;;16.19;97.74
75543;BME280;64129;53.508;10.476;2023-07-30T03:14:50;100246.72;;;16.07;98.81
75543;BME280;64129;53.508;10.476;2023-07-30T03:17:16;100254.50;;;16.11;99.24
75543;BME280;64129;53.508;10.476;2023-07-30T03:19:43;100262.09;;;16.03;100.00
75543;BME280;64129;53.508;10.476;2023-07-30T03:22:10;100256.03;;;16.00;100.00
75543;BME280;64129;53.508;10.476;2023-07-30T03:24:36;100266.06;;;15.96;99.40
75543;BME280;64129;53.508;10.476;2023-07-30T03:27:03;100267.19;;;16.08;96.79
75543;BME280;64129;53.508;10.476;2023-07-30T03:29:30;100271.59;;;16.09;97.62
75543;BME280;64129;53.508;10.476;2023-07-30T03:31:56;100269.72;;;15.94;100.00
75543;BME280;64129;53.508;10.476;2023-07-30T03:34:23;100262.34;;;15.99;97.20
75543;BME280;64129;53.508;10.476;2023-07-30T03:36:49;100269.53;;;16.14;96.37
75543;BME280;64129;53.508;10.476;2023-07-30T03:39:16;100267.38;;;15.87;100.00
75543;BME280;64129;53.508;10.476;2023-07-30T03:41:42;100267.06;;;15.94;99.37
75543;BME280;64129;53.508;10.476;2023-07-30T03:44:11;100273.44;;;15.91;98.86
75543;BME280;64129;53.508;10.476;2023-07-30T03:46:38;100274.31;;;15.91;100.00
75543;BME280;64129;53.508;10.476;2023-07-30T03:49:04;100271.16;;;15.83;100.00
75543;BME280;64129;53.508;10.476;2023-07-30T03:51:31;100271.66;;;15.74;100.00
75543;BME280;64129;53.508;10.476;2023-07-30T03:53:58;100280.00;;;15.85;96.85
75543;BME280;64129;53.508;10.476;2023-07-30T03:56:25;100276.38;;;15.86;97.79
75543;BME280;64129;53.508;10.476;2023-07-30T03:58:53;100276.00;;;15.77;99.67
75543;BME280;64129;53.508;10.476;2023-07-30T04:01:20;100276.16;;;15.74;100.00
75543;BME280;64129;53.508;10.476;2023-07-30T04:03:47;100282.91;;;15.81;99.00
75543;BME280;64129;53.508;10.476;2023-07-30T04:06:13;100286.53;;;15.80;99.93
75543;BME280;64129;53.508;10.476;2023-07-30T04:08:40;100290.47;;;15.73;100.00
75543;BME280;64129;53.508;10.476;2023-07-30T04:11:06;100285.13;;;15.73;100.00
75543;BME280;64129;53.508;10.476;2023-07-30T04:13:34;100288.38;;;15.62;100.00
75543;BME280;64129;53.508;10.476;2023-07-30T04:16:00;100288.84;;;15.70;100.00
75543;BME280;64129;53.508;10.476;2023-07-30T04:18:27;100288.09;;;15.84;98.89
75543;BME280;64129;53.508;10.476;2023-07-30T04:20:55;100284.41;;;15.86;98.51
75543;BME280;64129;53.508;10.476;2023-07-30T04:23:22;100288.72;;;15.89;97.99
75543;BME280;64129;53.508;10.476;2023-07-30T04:25:49;100281.09;;;15.81;98.29
75543;BME280;64129;53.508;10.476;2023-07-30T04:28:17;100284.47;;;15.85;98.05
75543;BME280;64129;53.508;10.476;2023-07-30T04:30:44;100290.88;;;15.82;98.01
75543;BME280;64129;53.508;10.476;2023-07-30T04:33:13;100295.19;;;15.85;98.98
75543;BME280;64129;53.508;10.476;2023-07-30T04:35:41;100298.81;;;15.84;100.00
75543;BME280;64129;53.508;10.476;2023-07-30T04:38:08;100293.09;;;15.74;100.00
75543;BME280;64129;53.508;10.476;2023-07-30T04:40:34;100297.25;;;15.80;100.00
75543;BME280;64129;53.508;10.476;2023-07-30T04:43:01;100293.41;;;15.68;100.00
75543;BME280;64129;53.508;10.476;2023-07-30T04:45:28;100293.78;;;15.78;100.00
75543;BME280;64129;53.508;10.476;2023-07-30T04:47:54;100296.72;;;15.73;100.00
75543;BME280;64129;53.508;10.476;2023-07-30T04:50:21;100298.13;;;15.80;100.00
75543;BME280;64129;53.508;10.476;2023-07-30T04:52:47;100292.03;;;15.94;100.00
75543;BME280;64129;53.508;10.476;2023-07-30T04:55:14;100300.22;;;15.91;100.00
75543;BME280;64129;53.508;10.476;2023-07-30T04:57:41;100293.84;;;15.94;100.00
75543;BME280;64129;53.508;10.476;2023-07-30T05:00:07;100297.78;;;15.86;99.29
75543;BME280;64129;53.508;10.476;2023-07-30T05:02:34;100302.81;;;15.93;100.00
75543;BME280;64129;53.508;10.476;2023-07-30T05:05:01;100297.16;;;15.99;100.00
75543;BME280;64129;53.508;10.476;2023-07-30T05:07:27;100295.44;;;15.98;100.00
75543;BME280;64129;53.508;10.476;2023-07-30T05:09:54;100300.78;;;15.98;100.00
75543;BME280;64129;53.508;10.476;2023-07-30T05:12:20;100307.53;;;16.05;100.00
75543;BME280;64129;53.508;10.476;2023-07-30T05:14:47;100301.06;;;16.09;99.66
75543;BME280;64129;53.508;10.476;2023-07-30T05:17:13;100298.06;;;16.15;99.72
75543;BME280;64129;53.508;10.476;2023-07-30T05:19:40;100297.72;;;16.21;99.37
75543;BME280;64129;53.508;10.476;2023-07-30T05:22:06;100302.56;;;16.14;100.00
75543;BME280;64129;53.508;10.476;2023-07-30T05:24:34;100305.69;;;16.22;100.00
75543;BME280;64129;53.508;10.476;2023-07-30T05:27:03;100299.53;;;16.20;100.00
75543;BME280;64129;53.508;10.476;2023-07-30T05:29:29;100301.34;;;16.20;99.44
75543;BME280;64129;53.508;10.476;2023-07-30T05:31:56;100300.50;;;16.19;100.00
75543;BME280;64129;53.508;10.476;2023-07-30T05:34:22;100298.47;;;16.40;99.46
75543;BME280;64129;53.508;10.476;2023-07-30T05:36:49;100305.22;;;16.32;99.64
75543;BME280;64129;53.508;10.476;2023-07-30T05:39:15;100304.34;;;16.47;99.33
75543;BME280;64129;53.508;10.476;2023-07-30T05:41:43;100308.66;;;16.34;99.94
75543;BME280;64129;53.508;10.476;2023-07-30T05:44:09;100312.38;;;16.31;99.90
75543;BME280;64129;53.508;10.476;2023-07-30T05:46:36;100300.91;;;16.45;99.00
75543;BME280;64129;53.508;10.476;2023-07-30T05:49:02;100300.97;;;16.43;96.99
75543;BME280;64129;53.508;10.476;2023-07-30T05:51:29;100299.88;;;16.47;100.00
75543;BME280;64129;53.508;10.476;2023-07-30T05:53:56;100308.06;;;16.44;99.72
75543;BME280;64129;53.508;10.476;2023-07-30T05:56:22;100308.69;;;16.49;98.80
75543;BME280;64129;53.508;10.476;2023-07-30T05:58:49;100310.16;;;16.55;98.60
75543;BME280;64129;53.508;10.476;2023-07-30T06:01:15;100296.06;;;16.51;98.86
75543;BME280;64129;53.508;10.476;2023-07-30T06:03:42;100300.91;;;16.61;98.38
75543;BME280;64129;53.508;10.476;2023-07-30T06:06:09;100302.97;;;16.56;98.61
75543;BME280;64129;53.508;10.476;2023-07-30T06:08:35;100304.53;;;16.60;98.36
75543;BME280;64129;53.508;10.476;2023-07-30T06:11:02;100303.16;;;16.52;97.75
75543;BME280;64129;53.508;10.476;2023-07-30T06:13:29;100299.09;;;16.61;96.86
75543;BME280;64129;53.508;10.476;2023-07-30T06:15:56;100306.94;;;16.48;97.31
75543;BME280;64129;53.508;10.476;2023-07-30T06:18:23;100307.81;;;16.65;97.23
75543;BME280;64129;53.508;10.476;2023-07-30T06:20:49;100307.72;;;16.68;95.93
75543;BME280;64129;53.508;10.476;2023-07-30T06:23:16;100305.56;;;16.74;96.01
75543;BME280;64129;53.508;10.476;2023-07-30T06:25:42;100300.78;;;16.79;97.40
75543;BME280;64129;53.508;10.476;2023-07-30T06:28:09;100297.50;;;16.90;96.84
75543;BME280;64129;53.508;10.476;2023-07-30T06:30:35;100293.50;;;16.97;96.76
75543;BME280;64129;53.508;10.476;2023-07-30T06:33:03;100301.81;;;17.08;96.62
75543;BME280;64129;53.508;10.476;2023-07-30T06:35:29;100299.66;;;16.99;95.40
75543;BME280;64129;53.508;10.476;2023-07-30T06:37:56;100303.66;;;17.08;94.61
75543;BME280;64129;53.508;10.476;2023-07-30T06:40:22;100307.69;;;17.15;95.56
75543;BME280;64129;53.508;10.476;2023-07-30T06:42:49;100310.47;;;17.13;95.43
75543;BME280;64129;53.508;10.476;2023-07-30T06:45:16;100300.38;;;17.33;93.67
75543;BME280;64129;53.508;10.476;2023-07-30T06:47:43;100299.09;;;17.40;95.12
75543;BME280;64129;53.508;10.476;2023-07-30T06:50:09;100308.34;;;17.34;93.92
75543;BME280;64129;53.508;10.476;2023-07-30T06:52:36;100303.25;;;17.60;94.04
75543;BME280;64129;53.508;10.476;2023-07-30T06:55:03;100310.88;;;17.67;94.55
75543;BME280;64129;53.508;10.476;2023-07-30T06:57:30;100311.03;;;17.80;93.52
75543;BME280;64129;53.508;10.476;2023-07-30T06:59:56;100311.72;;;17.84;92.84
75543;BME280;64129;53.508;10.476;2023-07-30T07:02:24;100312.69;;;17.97;92.17
75543;BME280;64129;53.508;10.476;2023-07-30T07:04:51;100315.72;;;17.76;91.07
75543;BME280;64129;53.508;10.476;2023-07-30T07:07:17;100314.69;;;17.63;90.69
75543;BME280;64129;53.508;10.476;2023-07-30T07:09:44;100320.34;;;17.74;91.51
75543;BME280;64129;53.508;10.476;2023-07-30T07:12:10;100328.09;;;18.09;89.86
75543;BME280;64129;53.508;10.476;2023-07-30T07:14:37;100322.72;;;18.09;89.95
75543;BME280;64129;53.508;10.476;2023-07-30T07:17:04;100332.22;;;18.29;89.03
75543;BME280;64129;53.508;10.476;2023-07-30T07:19:30;100330.34;;;18.01;90.53
75543;BME280;64129;53.508;10.476;2023-07-30T07:21:57;100332.41;;;18.12;89.40
75543;BME280;64129;53.508;10.476;2023-07-30T07:24:24;100339.03;;;18.06;90.03
75543;BME280;64129;53.508;10.476;2023-07-30T07:26:50;100340.03;;;18.03;90.33
75543;BME280;64129;53.508;10.476;2023-07-30T07:29:17;100347.47;;;18.14;90.07
75543;BME280;64129;53.508;10.476;2023-07-30T07:31:45;100340.84;;;18.20;89.30
75543;BME280;64129;53.508;10.476;2023-07-30T07:34:11;100346.13;;;18.07;88.98
75543;BME280;64129;53.508;10.476;2023-07-30T07:36:38;100343.63;;;18.32;88.52
75543;BME280;64129;53.508;10.476;2023-07-30T07:39:05;100344.13;;;18.25;89.65
75543;BME280;64129;53.508;10.476;2023-07-30T07:41:32;100340.75;;;18.35;90.35
75543;BME280;64129;53.508;10.476;2023-07-30T07:43:59;100345.59;;;18.45;88.72
75543;BME280;64129;53.508;10.476;2023-07-30T07:46:25;100351.16;;;18.42;88.73
75543;BME280;64129;53.508;10.476;2023-07-30T07:48:53;100351.88;;;18.74;86.61
75543;BME280;64129;53.508;10.476;2023-07-30T07:51:20;100328.53;;;19.01;86.20
75543;BME280;64129;53.508;10.476;2023-07-30T07:53:46;100335.97;;;18.83;85.08
75543;BME280;64129;53.508;10.476;2023-07-30T07:56:13;100346.16;;;18.92;85.75
75543;BME280;64129;53.508;10.476;2023-07-30T07:58:39;100328.81;;;19.11;83.58
75543;BME280;64129;53.508;10.476;2023-07-30T08:01:06;100328.00;;;19.23;83.11
75543;BME280;64129;53.508;10.476;2023-07-30T08:03:33;100333.50;;;19.48;82.68
75543;BME280;64129;53.508;10.476;2023-07-30T08:05:59;100329.88;;;19.35;83.35
75543;BME280;64129;53.508;10.476;2023-07-30T08:08:26;100331.56;;;19.50;83.22
75543;BME280;64129;53.508;10.476;2023-07-30T08:10:53;100331.91;;;19.98;82.02
75543;BME280;64129;53.508;10.476;2023-07-30T08:13:20;100326.88;;;19.67;81.89
75543;BME280;64129;53.508;10.476;2023-07-30T08:15:47;100335.56;;;19.97;79.68
75543;BME280;64129;53.508;10.476;2023-07-30T08:18:13;100330.66;;;20.16;79.49
75543;BME280;64129;53.508;10.476;2023-07-30T08:20:40;100336.03;;;20.16;77.61
75543;BME280;64129;53.508;10.476;2023-07-30T08:23:06;100323.97;;;20.60;78.51
75543;BME280;64129;53.508;10.476;2023-07-30T08:25:33;100330.44;;;20.45;76.21
75543;BME280;64129;53.508;10.476;2023-07-30T08:27:59;100331.91;;;20.74;77.32
75543;BME280;64129;53.508;10.476;2023-07-30T08:30:26;100328.25;;;20.24;75.14
75543;BME280;64129;53.508;10.476;2023-07-30T08:32:52;100324.81;;;20.22;77.22
75543;BME280;64129;53.508;10.476;2023-07-30T08:35:19;100335.81;;;20.45;75.38
75543;BME280;64129;53.508;10.476;2023-07-30T08:37:45;100331.31;;;20.58;74.07
75543;BME280;64129;53.508;10.476;2023-07-30T08:40:12;100323.00;;;20.98;73.68
75543;BME280;64129;53.508;10.476;2023-07-30T08:42:40;100328.28;;;20.99;71.41
75543;BME280;64129;53.508;10.476;2023-07-30T08:45:07;100323.16;;;20.71;71.28
75543;BME280;64129;53.508;10.476;2023-07-30T08:47:39;100320.19;;;20.99;70.17
75543;BME280;64129;53.508;10.476;2023-07-30T08:50:05;100321.69;;;21.03;70.44
75543;BME280;64129;53.508;10.476;2023-07-30T08:52:33;100323.41;;;21.65;69.88
75543;BME280;64129;53.508;10.476;2023-07-30T08:55:02;100309.38;;;21.60;72.19
75543;BME280;64129;53.508;10.476;2023-07-30T08:57:30;100327.22;;;21.73;69.68
75543;BME280;64129;53.508;10.476;2023-07-30T09:02:41;100321.78;;;21.38;70.65
75543;BME280;64129;53.508;10.476;2023-07-30T09:05:08;100323.13;;;21.33;68.09
75543;BME280;64129;53.508;10.476;2023-07-30T09:07:35;100319.22;;;21.61;66.38
75543;BME280;64129;53.508;10.476;2023-07-30T09:10:02;100330.81;;;21.50;67.67
75543;BME280;64129;53.508;10.476;2023-07-30T09:12:30;100322.78;;;21.37;66.65
75543;BME280;64129;53.508;10.476;2023-07-30T09:14:57;100318.47;;;21.59;68.20
75543;BME280;64129;53.508;10.476;2023-07-30T09:17:24;100326.06;;;21.54;68.79
75543;BME280;64129;53.508;10.476;2023-07-30T09:19:51;100330.59;;;21.53;67.54
75543;BME280;64129;53.508;10.476;2023-07-30T09:22:28;100334.00;;;21.79;66.41
75543;BME280;64129;53.508;10.476;2023-07-30T09:24:55;100341.06;;;22.39;65.95
75543;BME280;64129;53.508;10.476;2023-07-30T09:27:25;100337.13;;;22.21;66.74
75543;BME280;64129;53.508;10.476;2023-07-30T09:29:54;100334.50;;;21.84;65.15
75543;BME280;64129;53.508;10.476;2023-07-30T09:32:28;100335.53;;;22.29;64.76
75543;BME280;64129;53.508;10.476;2023-07-30T09:34:55;100339.09;;;22.30;65.13
75543;BME280;64129;53.508;10.476;2023-07-30T09:37:21;100326.75;;;21.79;65.43
75543;BME280;64129;53.508;10.476;2023-07-30T09:39:48;100336.78;;;22.01;66.39
75543;BME280;64129;53.508;10.476;2023-07-30T09:42:15;100331.16;;;21.69;65.36
75543;BME280;64129;53.508;10.476;2023-07-30T09:44:41;100333.19;;;21.55;65.63
75543;BME280;64129;53.508;10.476;2023-07-30T09:47:09;100336.19;;;21.74;65.83
75543;BME280;64129;53.508;10.476;2023-07-30T09:49:37;100335.16;;;21.53;68.35
75543;BME280;64129;53.508;10.476;2023-07-30T09:52:05;100343.88;;;21.32;66.64
75543;BME280;64129;53.508;10.476;2023-07-30T09:54:33;100341.63;;;21.26;67.33
75543;BME280;64129;53.508;10.476;2023-07-30T09:56:59;100337.72;;;21.30;67.17
75543;BME280;64129;53.508;10.476;2023-07-30T09:59:26;100336.97;;;21.28;66.84
75543;BME280;64129;53.508;10.476;2023-07-30T10:01:53;100341.13;;;21.08;68.95
75543;BME280;64129;53.508;10.476;2023-07-30T10:04:22;100344.44;;;20.75;67.67
75543;BME280;64129;53.508;10.476;2023-07-30T10:06:53;100349.38;;;20.94;67.96
75543;BME280;64129;53.508;10.476;2023-07-30T10:09:23;100346.59;;;20.70;69.39
75543;BME280;64129;53.508;10.476;2023-07-30T10:11:52;100347.47;;;20.71;69.08
75543;BME280;64129;53.508;10.476;2023-07-30T10:14:22;100344.00;;;20.81;68.83
75543;BME280;64129;53.508;10.476;2023-07-30T10:16:50;100351.22;;;20.81;69.41
75543;BME280;64129;53.508;10.476;2023-07-30T10:19:22;100348.88;;;21.13;68.71
75543;BME280;64129;53.508;10.476;2023-07-30T10:21:49;100347.59;;;21.18;67.60
75543;BME280;64129;53.508;10.476;2023-07-30T10:24:15;100360.44;;;21.28;67.70
75543;BME280;64129;53.508;10.476;2023-07-30T10:26:42;100343.25;;;21.29;67.46
75543;BME280;64129;53.508;10.476;2023-07-30T10:29:10;100358.06;;;21.47;66.01
75543;BME280;64129;53.508;10.476;2023-07-30T10:31:41;100351.69;;;21.72;66.06
75543;BME280;64129;53.508;10.476;2023-07-30T10:34:10;100349.34;;;21.43;64.79
75543;BME280;64129;53.508;10.476;2023-07-30T10:36:46;100346.75;;;21.66;64.65
75543;BME280;64129;53.508;10.476;2023-07-30T10:39:16;100355.94;;;21.39;64.11
75543;BME280;64129;53.508;10.476;2023-07-30T10:41:48;100349.84;;;21.48;64.48
75543;BME280;64129;53.508;10.476;2023-07-30T10:46:45;100347.59;;;21.66;64.30
75543;BME280;64129;53.508;10.476;2023-07-30T10:49:13;100354.75;;;21.67;64.95
75543;BME280;64129;53.508;10.476;2023-07-30T10:51:39;100358.88;;;21.36;63.79
75543;BME280;64129;53.508;10.476;2023-07-30T10:54:06;100372.81;;;21.67;62.70
75543;BME280;64129;53.508;10.476;2023-07-30T10:56:37;100358.38;;;21.31;62.15
75543;BME280;64129;53.508;10.476;2023-07-30T10:59:09;100363.59;;;21.45;62.87
75543;BME280;64129;53.508;10.476;2023-07-30T11:01:40;100366.78;;;21.98;63.27
75543;BME280;64129;53.508;10.476;2023-07-30T11:04:13;100372.00;;;21.54;61.49
75543;BME280;64129;53.508;10.476;2023-07-30T11:06:45;100357.50;;;21.55;63.17
75543;BME280;64129;53.508;10.476;2023-07-30T11:09:19;100363.28;;;21.85;62.66
75543;BME280;64129;53.508;10.476;2023-07-30T11:11:50;100364.69;;;21.67;61.33
75543;BME280;64129;53.508;10.476;2023-07-30T11:14:19;100368.91;;;21.82;62.52
75543;BME280;64129;53.508;10.476;2023-07-30T11:19:15;100365.19;;;21.72;61.75
75543;BME280;64129;53.508;10.476;2023-07-30T11:21:46;100363.53;;;21.34;62.22
75543;BME280;64129;53.508;10.476;2023-07-30T11:24:13;100362.78;;;21.32;63.01
75543;BME280;64129;53.508;10.476;2023-07-30T11:26:39;100358.88;;;21.36;63.19
75543;BME280;64129;53.508;10.476;2023-07-30T11:29:19;100357.09;;;21.24;62.94
75543;BME280;64129;53.508;10.476;2023-07-30T11:31:47;100359.25;;;21.19;63.60
75543;BME280;64129;53.508;10.476;2023-07-30T11:34:14;100364.91;;;21.03;64.35
75543;BME280;64129;53.508;10.476;2023-07-30T11:36:42;100354.69;;;21.32;63.26
75543;BME280;64129;53.508;10.476;2023-07-30T11:39:09;100355.88;;;21.28;64.44
75543;BME280;64129;53.508;10.476;2023-07-30T11:41:36;100356.44;;;21.08;63.92
75543;BME280;64129;53.508;10.476;2023-07-30T11:44:04;100366.25;;;20.85;65.71
75543;BME280;64129;53.508;10.476;2023-07-30T11:46:30;100349.59;;;20.78;65.83
75543;BME280;64129;53.508;10.476;2023-07-30T11:49:14;100357.06;;;20.75;65.75
75543;BME280;64129;53.508;10.476;2023-07-30T11:51:43;100362.34;;;20.89;65.12
75543;BME280;64129;53.508;10.476;2023-07-30T11:54:19;100356.31;;;20.85;66.06
75543;BME280;64129;53.508;10.476;2023-07-30T11:56:46;100352.47;;;20.51;66.15
75543;BME280;64129;53.508;10.476;2023-07-30T11:59:13;100355.91;;;20.66;65.13
75543;BME280;64129;53.508;10.476;2023-07-30T12:01:42;100353.50;;;20.74;63.94
75543;BME280;64129;53.508;10.476;2023-07-30T12:04:08;100350.34;;;20.80;61.73
75543;BME280;64129;53.508;10.476;2023-07-30T12:06:43;100353.47;;;21.00;61.81
75543;BME280;64129;53.508;10.476;2023-07-30T12:09:16;100352.88;;;20.83;63.30
75543;BME280;64129;53.508;10.476;2023-07-30T12:11:48;100354.63;;;20.59;61.45
75543;BME280;64129;53.508;10.476;2023-07-30T12:14:16;100354.41;;;20.62;61.04
75543;BME280;64129;53.508;10.476;2023-07-30T12:16:42;100350.28;;;20.69;61.49
75543;BME280;64129;53.508;10.476;2023-07-30T12:19:09;100356.88;;;20.65;60.46
75543;BME280;64129;53.508;10.476;2023-07-30T12:21:35;100347.88;;;20.77;62.98
75543;BME280;64129;53.508;10.476;2023-07-30T12:24:04;100352.00;;;20.70;61.50
75543;BME280;64129;53.508;10.476;2023-07-30T12:26:31;100349.22;;;20.59;61.95
75543;BME280;64129;53.508;10.476;2023-07-30T12:28:57;100351.38;;;20.54;63.23
75543;BME280;64129;53.508;10.476;2023-07-30T12:31:24;100352.88;;;20.58;63.79
75543;BME280;64129;53.508;10.476;2023-07-30T12:33:50;100347.69;;;20.30;64.64
75543;BME280;64129;53.508;10.476;2023-07-30T12:36:17;100356.44;;;20.46;64.96
75543;BME280;64129;53.508;10.476;2023-07-30T12:38:43;100352.00;;;20.70;64.93
75543;BME280;64129;53.508;10.476;2023-07-30T12:41:12;100348.91;;;21.00;62.33
75543;BME280;64129;53.508;10.476;2023-07-30T12:43:38;100352.69;;;21.82;60.75
75543;BME280;64129;53.508;10.476;2023-07-30T12:46:05;100332.47;;;22.67;60.65